sensor_id;sensor_type;location;lat;lon;timestamp;P1;durP1;ratioP1;P2;durP2;ratioP2
2618;SDS011;1319;52.346;13.096;2022-11-15T00:01:24;54.97;;;25.97;;
2618;SDS011;1319;52.346;13.096;2022-11-15T00:03:52;48.00;;;24.07;;
2618;SDS011;1319;52.346;13.096;2022-11-15T00:06:18;44.33;;;23.77;;
2618;SDS011;1319;52.346;13.096;2022-11-15T00:08:43;39.33;;;21.70;;
2618;SDS011;1319;52.346;13.096;2022-11-15T00:11:09;41.60;;;21.87;;
2618;SDS011;1319;52.346;13.096;2022-11-15T00:13:35;45.53;;;23.07;;
2618;SDS011;1319;52.346;13.096;2022-11-15T00:16:00;46.23;;;23.57;;
2618;SDS011;1319;52.346;13.096;2022-11-15T00:18:26;52.03;;;24.33;;
2618;SDS011;1319;52.346;13.096;2022-11-15T00:20:52;51.20;;;26.00;;
2618;SDS011;1319;52.346;13.096;2022-11-15T00:23:17;47.57;;;24.33;;
2618;SDS011;1319;52.346;13.096;2022-11-15T00:25:42;47.03;;;24.00;;
2618;SDS011;1319;52.346;13.096;2022-11-15T00:28:07;46.63;;;22.97;;
2618;SDS011;1319;52.346;13.096;2022-11-15T00:30:33;46.83;;;24.20;;
2618;SDS011;1319;52.346;13.096;2022-11-15T00:33:03;42.27;;;23.40;;
2618;SDS011;1319;52.346;13.096;2022-11-15T00:35:28;40.67;;;22.57;;
2618;SDS011;1319;52.346;13.096;2022-11-15T00:37:54;41.27;;;22.57;;
2618;SDS011;1319;52.346;13.096;2022-11-15T00:40:19;45.87;;;23.43;;
2618;SDS011;1319;52.346;13.096;2022-11-15T00:42:45;41.83;;;22.23;;
2618;SDS011;1319;52.346;13.096;2022-11-15T00:45:10;46.87;;;23.17;;
2618;SDS011;1319;52.346;13.096;2022-11-15T00:47:35;51.90;;;25.37;;
2618;SDS011;1319;52.346;13.096;2022-11-15T00:50:01;48.00;;;24.87;;
2618;SDS011;1319;52.346;13.096;2022-11-15T00:52:26;51.10;;;24.90;;
2618;SDS011;1319;52.346;13.096;2022-11-15T00:54:51;50.40;;;24.13;;
2618;SDS011;1319;52.346;13.096;2022-11-15T00:57:16;53.27;;;25.57;;
2618;SDS011;1319;52.346;13.096;2022-11-15T00:59:42;49.13;;;24.27;;
2618;SDS011;1319;52.346;13.096;2022-11-15T01:02:07;51.97;;;25.80;;
2618;SDS011;1319;52.346;13.096;2022-11-15T01:04:32;52.43;;;24.53;;
2618;SDS011;1319;52.346;13.096;2022-11-15T01:06:57;49.20;;;23.53;;
2618;SDS011;1319;52.346;13.096;2022-11-15T01:09:22;46.80;;;23.57;;
2618;SDS011;1319;52.346;13.096;2022-11-15T01:11:48;49.47;;;23.47;;
2618;SDS011;1319;52.346;13.096;2022-11-15T01:14:13;47.90;;;23.80;;
2618;SDS011;1319;52.346;13.096;2022-11-15T01:16:38;103.03;;;27.00;;
2618;SDS011;1319;52.346;13.096;2022-11-15T01:19:03;52.33;;;24.90;;
2618;SDS011;1319;52.346;13.096;2022-11-15T01:21:29;51.37;;;24.67;;
2618;SDS011;1319;52.346;13.096;2022-11-15T01:23:55;55.23;;;25.60;;
2618;SDS011;1319;52.346;13.096;2022-11-15T01:26:20;51.07;;;25.47;;
2618;SDS011;1319;52.346;13.096;2022-11-15T01:28:46;51.60;;;25.50;;
2618;SDS011;1319;52.346;13.096;2022-11-15T01:31:12;60.57;;;27.87;;
2618;SDS011;1319;52.346;13.096;2022-11-15T01:33:38;54.60;;;25.53;;
2618;SDS011;1319;52.346;13.096;2022-11-15T01:36:04;56.33;;;26.50;;
2618;SDS011;1319;52.346;13.096;2022-11-15T01:38:30;52.73;;;25.83;;
2618;SDS011;1319;52.346;13.096;2022-11-15T01:40:55;54.13;;;27.33;;
2618;SDS011;1319;52.346;13.096;2022-11-15T01:45:46;58.83;;;26.73;;
2618;SDS011;1319;52.346;13.096;2022-11-15T01:48:15;55.47;;;25.97;;
2618;SDS011;1319;52.346;13.096;2022-11-15T01:50:40;58.17;;;27.17;;
2618;SDS011;1319;52.346;13.096;2022-11-15T01:53:05;53.27;;;24.97;;
2618;SDS011;1319;52.346;13.096;2022-11-15T01:55:30;55.67;;;25.00;;
2618;SDS011;1319;52.346;13.096;2022-11-15T01:57:57;55.30;;;25.20;;
2618;SDS011;1319;52.346;13.096;2022-11-15T02:00:23;50.77;;;25.00;;
2618;SDS011;1319;52.346;13.096;2022-11-15T02:02:48;49.90;;;24.70;;
2618;SDS011;1319;52.346;13.096;2022-11-15T02:05:14;58.40;;;26.20;;
2618;SDS011;1319;52.346;13.096;2022-11-15T02:07:39;55.10;;;25.20;;
2618;SDS011;1319;52.346;13.096;2022-11-15T02:10:13;58.70;;;25.60;;
2618;SDS011;1319;52.346;13.096;2022-11-15T02:12:38;57.37;;;26.40;;
2618;SDS011;1319;52.346;13.096;2022-11-15T02:15:04;58.60;;;25.13;;
2618;SDS011;1319;52.346;13.096;2022-11-15T02:22:51;55.60;;;24.93;;
2618;SDS011;1319;52.346;13.096;2022-11-15T02:27:57;52.93;;;24.87;;
2618;SDS011;1319;52.346;13.096;2022-11-15T02:33:02;55.40;;;24.87;;
2618;SDS011;1319;52.346;13.096;2022-11-15T02:38:17;54.13;;;24.30;;
2618;SDS011;1319;52.346;13.096;2022-11-15T02:43:09;57.27;;;25.40;;
2618;SDS011;1319;52.346;13.096;2022-11-15T02:45:55;57.93;;;26.00;;
2618;SDS011;1319;52.346;13.096;2022-11-15T02:48:23;59.63;;;26.80;;
2618;SDS011;1319;52.346;13.096;2022-11-15T02:50:49;50.87;;;25.07;;
2618;SDS011;1319;52.346;13.096;2022-11-15T02:53:15;56.43;;;25.50;;
2618;SDS011;1319;52.346;13.096;2022-11-15T02:55:44;56.53;;;25.67;;
2618;SDS011;1319;52.346;13.096;2022-11-15T03:08:33;61.30;;;27.43;;
2618;SDS011;1319;52.346;13.096;2022-11-15T03:11:12;58.43;;;26.17;;
2618;SDS011;1319;52.346;13.096;2022-11-15T03:16:04;62.03;;;25.83;;
2618;SDS011;1319;52.346;13.096;2022-11-15T03:18:35;56.33;;;25.13;;
2618;SDS011;1319;52.346;13.096;2022-11-15T03:21:03;61.43;;;25.20;;
2618;SDS011;1319;52.346;13.096;2022-11-15T03:23:29;61.60;;;26.60;;
2618;SDS011;1319;52.346;13.096;2022-11-15T03:25:55;61.30;;;26.33;;
2618;SDS011;1319;52.346;13.096;2022-11-15T03:28:41;58.93;;;25.40;;
2618;SDS011;1319;52.346;13.096;2022-11-15T03:31:07;59.53;;;25.63;;
2618;SDS011;1319;52.346;13.096;2022-11-15T03:33:52;62.20;;;26.10;;
2618;SDS011;1319;52.346;13.096;2022-11-15T03:36:18;63.67;;;26.57;;
2618;SDS011;1319;52.346;13.096;2022-11-15T03:38:44;60.63;;;26.80;;
2618;SDS011;1319;52.346;13.096;2022-11-15T03:41:14;58.10;;;26.63;;
2618;SDS011;1319;52.346;13.096;2022-11-15T03:43:56;61.67;;;25.90;;
2618;SDS011;1319;52.346;13.096;2022-11-15T03:46:27;63.27;;;27.23;;
2618;SDS011;1319;52.346;13.096;2022-11-15T03:48:54;66.87;;;26.93;;
2618;SDS011;1319;52.346;13.096;2022-11-15T03:51:22;69.57;;;28.00;;
2618;SDS011;1319;52.346;13.096;2022-11-15T03:53:47;67.60;;;28.03;;
2618;SDS011;1319;52.346;13.096;2022-11-15T03:56:13;68.37;;;28.37;;
2618;SDS011;1319;52.346;13.096;2022-11-15T03:58:38;66.80;;;28.33;;
2618;SDS011;1319;52.346;13.096;2022-11-15T04:01:03;72.00;;;28.93;;
2618;SDS011;1319;52.346;13.096;2022-11-15T04:03:29;69.73;;;29.43;;
2618;SDS011;1319;52.346;13.096;2022-11-15T04:05:54;76.27;;;29.37;;
2618;SDS011;1319;52.346;13.096;2022-11-15T04:08:19;74.57;;;29.57;;
2618;SDS011;1319;52.346;13.096;2022-11-15T04:10:44;75.83;;;27.87;;
2618;SDS011;1319;52.346;13.096;2022-11-15T04:13:09;71.43;;;28.57;;
2618;SDS011;1319;52.346;13.096;2022-11-15T04:15:35;76.93;;;28.90;;
2618;SDS011;1319;52.346;13.096;2022-11-15T04:18:00;73.83;;;29.93;;
2618;SDS011;1319;52.346;13.096;2022-11-15T04:20:26;79.73;;;29.73;;
2618;SDS011;1319;52.346;13.096;2022-11-15T04:25:59;77.50;;;29.70;;
2618;SDS011;1319;52.346;13.096;2022-11-15T04:28:24;78.67;;;29.77;;
2618;SDS011;1319;52.346;13.096;2022-11-15T04:30:50;76.67;;;29.97;;
2618;SDS011;1319;52.346;13.096;2022-11-15T04:33:15;77.00;;;28.90;;
2618;SDS011;1319;52.346;13.096;2022-11-15T04:35:41;76.57;;;29.80;;
2618;SDS011;1319;52.346;13.096;2022-11-15T04:38:07;75.83;;;29.73;;
2618;SDS011;1319;52.346;13.096;2022-11-15T04:40:33;73.13;;;29.23;;
2618;SDS011;1319;52.346;13.096;2022-11-15T04:42:58;82.10;;;31.40;;
2618;SDS011;1319;52.346;13.096;2022-11-15T04:45:24;74.90;;;30.47;;
2618;SDS011;1319;52.346;13.096;2022-11-15T04:47:49;77.40;;;30.23;;
2618;SDS011;1319;52.346;13.096;2022-11-15T04:50:15;78.87;;;30.20;;
2618;SDS011;1319;52.346;13.096;2022-11-15T04:52:41;82.93;;;30.90;;
2618;SDS011;1319;52.346;13.096;2022-11-15T04:55:07;97.30;;;32.20;;
2618;SDS011;1319;52.346;13.096;2022-11-15T04:57:32;90.40;;;30.87;;
2618;SDS011;1319;52.346;13.096;2022-11-15T04:59:57;126.17;;;35.40;;
2618;SDS011;1319;52.346;13.096;2022-11-15T05:02:23;124.77;;;33.53;;
2618;SDS011;1319;52.346;13.096;2022-11-15T05:04:48;147.03;;;34.03;;
2618;SDS011;1319;52.346;13.096;2022-11-15T05:07:13;209.97;;;34.63;;
2618;SDS011;1319;52.346;13.096;2022-11-15T05:09:38;85.60;;;32.13;;
2618;SDS011;1319;52.346;13.096;2022-11-15T05:12:04;94.80;;;33.53;;
2618;SDS011;1319;52.346;13.096;2022-11-15T05:14:29;81.20;;;31.17;;
2618;SDS011;1319;52.346;13.096;2022-11-15T05:16:54;79.37;;;30.40;;
2618;SDS011;1319;52.346;13.096;2022-11-15T05:19:20;77.10;;;31.03;;
2618;SDS011;1319;52.346;13.096;2022-11-15T05:21:45;76.13;;;29.60;;
2618;SDS011;1319;52.346;13.096;2022-11-15T05:24:10;121.10;;;31.23;;
2618;SDS011;1319;52.346;13.096;2022-11-15T05:26:36;72.37;;;29.53;;
2618;SDS011;1319;52.346;13.096;2022-11-15T05:29:01;80.07;;;31.13;;
2618;SDS011;1319;52.346;13.096;2022-11-15T05:31:27;77.80;;;29.60;;
2618;SDS011;1319;52.346;13.096;2022-11-15T05:33:52;73.93;;;28.97;;
2618;SDS011;1319;52.346;13.096;2022-11-15T05:36:27;76.77;;;29.63;;
2618;SDS011;1319;52.346;13.096;2022-11-15T05:38:52;77.43;;;30.27;;
2618;SDS011;1319;52.346;13.096;2022-11-15T05:41:18;77.47;;;30.77;;
2618;SDS011;1319;52.346;13.096;2022-11-15T05:43:45;92.90;;;32.37;;
2618;SDS011;1319;52.346;13.096;2022-11-15T05:46:12;102.60;;;33.57;;
2618;SDS011;1319;52.346;13.096;2022-11-15T05:48:38;88.83;;;32.23;;
2618;SDS011;1319;52.346;13.096;2022-11-15T05:51:05;97.83;;;32.20;;
2618;SDS011;1319;52.346;13.096;2022-11-15T05:53:31;95.50;;;31.33;;
2618;SDS011;1319;52.346;13.096;2022-11-15T05:55:57;93.07;;;32.03;;
2618;SDS011;1319;52.346;13.096;2022-11-15T05:58:22;86.97;;;30.40;;
2618;SDS011;1319;52.346;13.096;2022-11-15T06:00:48;83.77;;;31.03;;
2618;SDS011;1319;52.346;13.096;2022-11-15T06:03:13;83.90;;;30.87;;
2618;SDS011;1319;52.346;13.096;2022-11-15T06:05:39;81.57;;;30.30;;
2618;SDS011;1319;52.346;13.096;2022-11-15T06:08:04;83.83;;;31.80;;
2618;SDS011;1319;52.346;13.096;2022-11-15T06:10:29;78.80;;;29.90;;
2618;SDS011;1319;52.346;13.096;2022-11-15T06:12:58;79.33;;;30.27;;
2618;SDS011;1319;52.346;13.096;2022-11-15T06:15:24;90.60;;;31.77;;
2618;SDS011;1319;52.346;13.096;2022-11-15T06:17:49;91.40;;;31.87;;
2618;SDS011;1319;52.346;13.096;2022-11-15T06:20:14;78.27;;;29.60;;
2618;SDS011;1319;52.346;13.096;2022-11-15T06:22:40;85.23;;;31.00;;
2618;SDS011;1319;52.346;13.096;2022-11-15T06:25:05;84.03;;;30.53;;
2618;SDS011;1319;52.346;13.096;2022-11-15T06:27:30;82.83;;;31.70;;
2618;SDS011;1319;52.346;13.096;2022-11-15T06:29:55;77.43;;;29.87;;
2618;SDS011;1319;52.346;13.096;2022-11-15T06:32:21;77.20;;;29.07;;
2618;SDS011;1319;52.346;13.096;2022-11-15T06:34:46;81.23;;;30.10;;
2618;SDS011;1319;52.346;13.096;2022-11-15T06:37:11;70.90;;;29.30;;
2618;SDS011;1319;52.346;13.096;2022-11-15T06:39:36;77.23;;;28.23;;
2618;SDS011;1319;52.346;13.096;2022-11-15T06:42:02;71.60;;;28.93;;
2618;SDS011;1319;52.346;13.096;2022-11-15T06:44:27;78.03;;;30.27;;
2618;SDS011;1319;52.346;13.096;2022-11-15T06:46:52;76.53;;;30.33;;
2618;SDS011;1319;52.346;13.096;2022-11-15T06:49:17;79.10;;;29.97;;
2618;SDS011;1319;52.346;13.096;2022-11-15T06:51:43;67.90;;;28.50;;
2618;SDS011;1319;52.346;13.096;2022-11-15T06:54:08;69.67;;;28.50;;
2618;SDS011;1319;52.346;13.096;2022-11-15T06:56:34;71.53;;;29.10;;
2618;SDS011;1319;52.346;13.096;2022-11-15T06:58:59;72.53;;;29.10;;
2618;SDS011;1319;52.346;13.096;2022-11-15T07:01:24;61.13;;;26.70;;
2618;SDS011;1319;52.346;13.096;2022-11-15T07:03:49;57.43;;;25.30;;
2618;SDS011;1319;52.346;13.096;2022-11-15T07:06:15;45.30;;;23.93;;
2618;SDS011;1319;52.346;13.096;2022-11-15T07:08:40;54.67;;;25.47;;
2618;SDS011;1319;52.346;13.096;2022-11-15T07:11:07;47.53;;;22.80;;
2618;SDS011;1319;52.346;13.096;2022-11-15T07:13:33;52.63;;;24.20;;
2618;SDS011;1319;52.346;13.096;2022-11-15T07:16:06;49.07;;;23.47;;
2618;SDS011;1319;52.346;13.096;2022-11-15T07:18:35;52.10;;;24.73;;
2618;SDS011;1319;52.346;13.096;2022-11-15T07:21:04;53.43;;;24.13;;
2618;SDS011;1319;52.346;13.096;2022-11-15T07:23:29;50.50;;;24.37;;
2618;SDS011;1319;52.346;13.096;2022-11-15T07:25:56;54.53;;;26.00;;
2618;SDS011;1319;52.346;13.096;2022-11-15T07:28:21;51.67;;;24.67;;
2618;SDS011;1319;52.346;13.096;2022-11-15T07:30:46;49.63;;;23.57;;
2618;SDS011;1319;52.346;13.096;2022-11-15T07:33:11;52.20;;;24.53;;
2618;SDS011;1319;52.346;13.096;2022-11-15T07:35:37;48.47;;;23.70;;
2618;SDS011;1319;52.346;13.096;2022-11-15T07:38:02;48.07;;;22.73;;
2618;SDS011;1319;52.346;13.096;2022-11-15T07:40:29;48.67;;;23.57;;
2618;SDS011;1319;52.346;13.096;2022-11-15T07:43:04;49.87;;;23.73;;
2618;SDS011;1319;52.346;13.096;2022-11-15T07:45:30;47.77;;;23.13;;
2618;SDS011;1319;52.346;13.096;2022-11-15T07:47:55;49.53;;;24.97;;
2618;SDS011;1319;52.346;13.096;2022-11-15T07:50:22;54.33;;;25.47;;
2618;SDS011;1319;52.346;13.096;2022-11-15T07:52:47;51.93;;;24.87;;
2618;SDS011;1319;52.346;13.096;2022-11-15T07:55:12;51.40;;;25.00;;
2618;SDS011;1319;52.346;13.096;2022-11-15T07:57:38;49.77;;;26.90;;
2618;SDS011;1319;52.346;13.096;2022-11-15T08:00:06;50.23;;;25.50;;
2618;SDS011;1319;52.346;13.096;2022-11-15T08:02:32;46.37;;;24.43;;
2618;SDS011;1319;52.346;13.096;2022-11-15T08:04:57;45.90;;;24.03;;
2618;SDS011;1319;52.346;13.096;2022-11-15T08:07:22;44.73;;;23.50;;
2618;SDS011;1319;52.346;13.096;2022-11-15T08:09:48;41.47;;;22.97;;
2618;SDS011;1319;52.346;13.096;2022-11-15T08:12:13;40.07;;;22.50;;
2618;SDS011;1319;52.346;13.096;2022-11-15T08:14:39;41.67;;;23.80;;
2618;SDS011;1319;52.346;13.096;2022-11-15T08:17:04;49.57;;;26.30;;
2618;SDS011;1319;52.346;13.096;2022-11-15T08:22:33;43.07;;;24.13;;
2618;SDS011;1319;52.346;13.096;2022-11-15T08:24:58;39.13;;;23.63;;
2618;SDS011;1319;52.346;13.096;2022-11-15T08:27:23;39.27;;;23.07;;
2618;SDS011;1319;52.346;13.096;2022-11-15T08:29:48;45.73;;;25.63;;
2618;SDS011;1319;52.346;13.096;2022-11-15T08:32:14;41.13;;;24.30;;
2618;SDS011;1319;52.346;13.096;2022-11-15T08:34:39;39.33;;;22.80;;
2618;SDS011;1319;52.346;13.096;2022-11-15T08:37:05;38.67;;;22.57;;
2618;SDS011;1319;52.346;13.096;2022-11-15T08:39:30;36.07;;;22.83;;
2618;SDS011;1319;52.346;13.096;2022-11-15T08:41:55;36.80;;;22.17;;
2618;SDS011;1319;52.346;13.096;2022-11-15T08:44:21;35.83;;;22.53;;
2618;SDS011;1319;52.346;13.096;2022-11-15T08:46:46;31.00;;;20.87;;
2618;SDS011;1319;52.346;13.096;2022-11-15T08:49:11;28.97;;;18.80;;
2618;SDS011;1319;52.346;13.096;2022-11-15T08:51:37;26.57;;;18.57;;
2618;SDS011;1319;52.346;13.096;2022-11-15T08:54:02;23.73;;;17.03;;
2618;SDS011;1319;52.346;13.096;2022-11-15T08:56:27;23.93;;;17.10;;
2618;SDS011;1319;52.346;13.096;2022-11-15T08:58:53;22.23;;;17.13;;
2618;SDS011;1319;52.346;13.096;2022-11-15T09:01:19;21.07;;;16.53;;
2618;SDS011;1319;52.346;13.096;2022-11-15T09:03:44;22.53;;;16.73;;
2618;SDS011;1319;52.346;13.096;2022-11-15T09:06:10;24.70;;;17.27;;
2618;SDS011;1319;52.346;13.096;2022-11-15T09:08:35;22.00;;;16.30;;
2618;SDS011;1319;52.346;13.096;2022-11-15T09:11:04;21.53;;;16.90;;
2618;SDS011;1319;52.346;13.096;2022-11-15T09:13:30;23.37;;;17.30;;
2618;SDS011;1319;52.346;13.096;2022-11-15T09:15:59;18.70;;;15.17;;
2618;SDS011;1319;52.346;13.096;2022-11-15T09:18:24;19.13;;;15.53;;
2618;SDS011;1319;52.346;13.096;2022-11-15T09:20:50;19.23;;;15.43;;
2618;SDS011;1319;52.346;13.096;2022-11-15T09:23:15;18.27;;;14.73;;
2618;SDS011;1319;52.346;13.096;2022-11-15T09:25:41;17.23;;;14.60;;
2618;SDS011;1319;52.346;13.096;2022-11-15T09:28:06;17.40;;;14.13;;
2618;SDS011;1319;52.346;13.096;2022-11-15T09:30:32;17.50;;;14.20;;
2618;SDS011;1319;52.346;13.096;2022-11-15T09:32:57;18.13;;;13.70;;
2618;SDS011;1319;52.346;13.096;2022-11-15T09:35:22;19.43;;;14.33;;
2618;SDS011;1319;52.346;13.096;2022-11-15T09:37:48;18.20;;;13.60;;
2618;SDS011;1319;52.346;13.096;2022-11-15T09:40:14;20.03;;;13.63;;
2618;SDS011;1319;52.346;13.096;2022-11-15T09:45:36;25.70;;;14.70;;
2618;SDS011;1319;52.346;13.096;2022-11-15T09:50:41;20.13;;;13.80;;
2618;SDS011;1319;52.346;13.096;2022-11-15T09:53:11;20.43;;;13.27;;
2618;SDS011;1319;52.346;13.096;2022-11-15T09:55:45;19.43;;;13.67;;
2618;SDS011;1319;52.346;13.096;2022-11-15T09:58:34;19.57;;;13.50;;
2618;SDS011;1319;52.346;13.096;2022-11-15T10:01:00;18.30;;;13.07;;
2618;SDS011;1319;52.346;13.096;2022-11-15T10:03:34;24.07;;;13.67;;
2618;SDS011;1319;52.346;13.096;2022-11-15T10:06:01;18.47;;;13.27;;
2618;SDS011;1319;52.346;13.096;2022-11-15T10:11:03;15.83;;;11.80;;
2618;SDS011;1319;52.346;13.096;2022-11-15T10:13:31;19.00;;;11.80;;
2618;SDS011;1319;52.346;13.096;2022-11-15T10:16:09;16.03;;;11.83;;
2618;SDS011;1319;52.346;13.096;2022-11-15T10:18:42;17.73;;;11.70;;
2618;SDS011;1319;52.346;13.096;2022-11-15T10:21:15;16.90;;;11.77;;
2618;SDS011;1319;52.346;13.096;2022-11-15T10:23:41;15.57;;;12.10;;
2618;SDS011;1319;52.346;13.096;2022-11-15T10:26:08;18.47;;;11.53;;
2618;SDS011;1319;52.346;13.096;2022-11-15T10:28:34;17.03;;;11.90;;
2618;SDS011;1319;52.346;13.096;2022-11-15T10:31:00;17.00;;;10.50;;
2618;SDS011;1319;52.346;13.096;2022-11-15T10:39:11;13.87;;;10.80;;
2618;SDS011;1319;52.346;13.096;2022-11-15T10:41:30;13.47;;;10.60;;
2618;SDS011;1319;52.346;13.096;2022-11-15T10:46:27;10.47;;;9.27;;
2618;SDS011;1319;52.346;13.096;2022-11-15T10:48:53;15.38;;;9.55;;
2618;SDS011;1319;52.346;13.096;2022-11-15T10:51:26;10.05;;;8.93;;
2618;SDS011;1319;52.346;13.096;2022-11-15T10:53:53;11.80;;;9.40;;
2618;SDS011;1319;52.346;13.096;2022-11-15T10:56:20;11.32;;;8.63;;
2618;SDS011;1319;52.346;13.096;2022-11-15T10:58:50;9.07;;;8.18;;
2618;SDS011;1319;52.346;13.096;2022-11-15T11:03:42;10.80;;;8.30;;
2618;SDS011;1319;52.346;13.096;2022-11-15T11:08:33;9.30;;;7.80;;
2618;SDS011;1319;52.346;13.096;2022-11-15T11:10:59;8.82;;;7.93;;
2618;SDS011;1319;52.346;13.096;2022-11-15T11:13:29;9.32;;;7.85;;
2618;SDS011;1319;52.346;13.096;2022-11-15T11:18:23;9.38;;;7.85;;
2618;SDS011;1319;52.346;13.096;2022-11-15T11:21:00;10.40;;;7.30;;
2618;SDS011;1319;52.346;13.096;2022-11-15T11:23:36;7.95;;;7.15;;
2618;SDS011;1319;52.346;13.096;2022-11-15T11:38:51;7.35;;;6.65;;
2618;SDS011;1319;52.346;13.096;2022-11-15T11:41:30;7.47;;;6.68;;
2618;SDS011;1319;52.346;13.096;2022-11-15T11:49:23;8.05;;;6.72;;
2618;SDS011;1319;52.346;13.096;2022-11-15T11:51:54;9.23;;;6.57;;
2618;SDS011;1319;52.346;13.096;2022-11-15T11:54:28;7.88;;;7.07;;
2618;SDS011;1319;52.346;13.096;2022-11-15T11:56:56;7.90;;;7.20;;
2618;SDS011;1319;52.346;13.096;2022-11-15T11:59:36;7.95;;;7.18;;
2618;SDS011;1319;52.346;13.096;2022-11-15T12:02:13;7.38;;;6.68;;
2618;SDS011;1319;52.346;13.096;2022-11-15T12:04:40;7.30;;;6.70;;
2618;SDS011;1319;52.346;13.096;2022-11-15T12:07:27;10.75;;;7.18;;
2618;SDS011;1319;52.346;13.096;2022-11-15T12:15:12;6.55;;;5.95;;
2618;SDS011;1319;52.346;13.096;2022-11-15T12:17:39;8.40;;;6.07;;
2618;SDS011;1319;52.346;13.096;2022-11-15T12:20:27;6.88;;;6.18;;
2618;SDS011;1319;52.346;13.096;2022-11-15T12:22:58;7.32;;;6.60;;
2618;SDS011;1319;52.346;13.096;2022-11-15T12:25:32;7.63;;;6.32;;
2618;SDS011;1319;52.346;13.096;2022-11-15T12:30:27;7.55;;;6.32;;
2618;SDS011;1319;52.346;13.096;2022-11-15T12:32:58;9.15;;;6.57;;
2618;SDS011;1319;52.346;13.096;2022-11-15T12:37:55;6.38;;;5.78;;
2618;SDS011;1319;52.346;13.096;2022-11-15T12:45:28;10.70;;;6.30;;
2618;SDS011;1319;52.346;13.096;2022-11-15T12:47:55;6.80;;;6.10;;
2618;SDS011;1319;52.346;13.096;2022-11-15T13:06:40;7.80;;;6.27;;
2618;SDS011;1319;52.346;13.096;2022-11-15T13:09:49;9.00;;;6.37;;
2618;SDS011;1319;52.346;13.096;2022-11-15T13:11:51;8.83;;;6.40;;
2618;SDS011;1319;52.346;13.096;2022-11-15T13:17:00;8.97;;;5.70;;
2618;SDS011;1319;52.346;13.096;2022-11-15T13:19:26;8.23;;;6.20;;
2618;SDS011;1319;52.346;13.096;2022-11-15T13:21:51;10.13;;;6.10;;
2618;SDS011;1319;52.346;13.096;2022-11-15T13:24:37;9.27;;;6.10;;
2618;SDS011;1319;52.346;13.096;2022-11-15T13:27:09;8.13;;;6.10;;
2618;SDS011;1319;52.346;13.096;2022-11-15T13:29:35;9.07;;;6.13;;
2618;SDS011;1319;52.346;13.096;2022-11-15T13:32:01;7.25;;;5.65;;
2618;SDS011;1319;52.346;13.096;2022-11-15T13:34:27;10.00;;;5.53;;
2618;SDS011;1319;52.346;13.096;2022-11-15T13:36:53;6.47;;;5.78;;
2618;SDS011;1319;52.346;13.096;2022-11-15T13:39:26;6.05;;;5.45;;
2618;SDS011;1319;52.346;13.096;2022-11-15T13:41:51;5.60;;;5.10;;
2618;SDS011;1319;52.346;13.096;2022-11-15T13:44:24;6.70;;;5.78;;
2618;SDS011;1319;52.346;13.096;2022-11-15T13:47:00;37.05;;;8.30;;
2618;SDS011;1319;52.346;13.096;2022-11-15T13:49:28;14.75;;;6.38;;
2618;SDS011;1319;52.346;13.096;2022-11-15T13:51:54;8.23;;;5.95;;
2618;SDS011;1319;52.346;13.096;2022-11-15T13:54:28;15.60;;;7.10;;
2618;SDS011;1319;52.346;13.096;2022-11-15T13:56:55;9.77;;;5.82;;
2618;SDS011;1319;52.346;13.096;2022-11-15T13:59:25;15.50;;;6.57;;
2618;SDS011;1319;52.346;13.096;2022-11-15T14:01:51;8.68;;;5.38;;
2618;SDS011;1319;52.346;13.096;2022-11-15T14:04:18;10.75;;;6.07;;
2618;SDS011;1319;52.346;13.096;2022-11-15T14:06:44;7.95;;;5.97;;
2618;SDS011;1319;52.346;13.096;2022-11-15T14:11:36;10.88;;;6.15;;
2618;SDS011;1319;52.346;13.096;2022-11-15T14:16:36;8.40;;;6.50;;
2618;SDS011;1319;52.346;13.096;2022-11-15T14:19:03;8.38;;;6.10;;
2618;SDS011;1319;52.346;13.096;2022-11-15T14:21:29;18.02;;;7.53;;
2618;SDS011;1319;52.346;13.096;2022-11-15T14:24:13;9.70;;;6.60;;
2618;SDS011;1319;52.346;13.096;2022-11-15T14:26:39;8.37;;;6.33;;
2618;SDS011;1319;52.346;13.096;2022-11-15T14:31:48;10.40;;;6.50;;
2618;SDS011;1319;52.346;13.096;2022-11-15T14:34:13;13.50;;;7.47;;
2618;SDS011;1319;52.346;13.096;2022-11-15T14:36:39;11.43;;;8.07;;
2618;SDS011;1319;52.346;13.096;2022-11-15T14:39:04;11.63;;;8.00;;
2618;SDS011;1319;52.346;13.096;2022-11-15T14:41:33;11.53;;;7.40;;
2618;SDS011;1319;52.346;13.096;2022-11-15T14:43:59;13.20;;;7.63;;
2618;SDS011;1319;52.346;13.096;2022-11-15T14:46:24;12.67;;;7.80;;
2618;SDS011;1319;52.346;13.096;2022-11-15T14:48:50;15.03;;;7.83;;
2618;SDS011;1319;52.346;13.096;2022-11-15T14:51:16;12.60;;;7.10;;
2618;SDS011;1319;52.346;13.096;2022-11-15T14:53:42;15.80;;;7.77;;
2618;SDS011;1319;52.346;13.096;2022-11-15T14:56:08;13.60;;;7.47;;
2618;SDS011;1319;52.346;13.096;2022-11-15T14:58:33;12.63;;;7.70;;
2618;SDS011;1319;52.346;13.096;2022-11-15T15:00:59;11.60;;;7.53;;
2618;SDS011;1319;52.346;13.096;2022-11-15T15:03:24;9.53;;;7.23;;
2618;SDS011;1319;52.346;13.096;2022-11-15T15:05:49;11.97;;;7.60;;
2618;SDS011;1319;52.346;13.096;2022-11-15T15:08:14;10.80;;;7.07;;
2618;SDS011;1319;52.346;13.096;2022-11-15T15:10:40;10.57;;;6.83;;
2618;SDS011;1319;52.346;13.096;2022-11-15T15:13:08;11.70;;;6.43;;
2618;SDS011;1319;52.346;13.096;2022-11-15T15:15:36;9.73;;;6.43;;
2618;SDS011;1319;52.346;13.096;2022-11-15T15:18:02;11.33;;;6.90;;
2618;SDS011;1319;52.346;13.096;2022-11-15T15:20:29;10.93;;;6.77;;
2618;SDS011;1319;52.346;13.096;2022-11-15T15:22:54;10.77;;;6.87;;
2618;SDS011;1319;52.346;13.096;2022-11-15T15:25:27;9.97;;;6.93;;
2618;SDS011;1319;52.346;13.096;2022-11-15T15:27:53;8.80;;;6.60;;
2618;SDS011;1319;52.346;13.096;2022-11-15T15:30:19;9.87;;;7.27;;
2618;SDS011;1319;52.346;13.096;2022-11-15T15:32:44;13.40;;;7.47;;
2618;SDS011;1319;52.346;13.096;2022-11-15T15:35:13;11.70;;;7.57;;
2618;SDS011;1319;52.346;13.096;2022-11-15T15:37:39;10.20;;;7.37;;
2618;SDS011;1319;52.346;13.096;2022-11-15T15:40:10;10.93;;;6.87;;
2618;SDS011;1319;52.346;13.096;2022-11-15T15:42:37;13.67;;;7.77;;
2618;SDS011;1319;52.346;13.096;2022-11-15T15:45:02;12.23;;;7.73;;
2618;SDS011;1319;52.346;13.096;2022-11-15T15:47:28;10.40;;;7.40;;
2618;SDS011;1319;52.346;13.096;2022-11-15T15:49:53;11.87;;;7.93;;
2618;SDS011;1319;52.346;13.096;2022-11-15T15:52:18;10.70;;;7.40;;
2618;SDS011;1319;52.346;13.096;2022-11-15T15:54:44;10.17;;;7.43;;
2618;SDS011;1319;52.346;13.096;2022-11-15T15:57:11;9.63;;;6.87;;
2618;SDS011;1319;52.346;13.096;2022-11-15T15:59:36;10.47;;;6.73;;
2618;SDS011;1319;52.346;13.096;2022-11-15T16:02:02;7.63;;;5.60;;
2618;SDS011;1319;52.346;13.096;2022-11-15T16:04:27;12.50;;;7.13;;
2618;SDS011;1319;52.346;13.096;2022-11-15T16:06:54;10.27;;;6.73;;
2618;SDS011;1319;52.346;13.096;2022-11-15T16:09:22;12.23;;;7.63;;
2618;SDS011;1319;52.346;13.096;2022-11-15T16:12:08;12.20;;;7.10;;
2618;SDS011;1319;52.346;13.096;2022-11-15T16:14:33;10.43;;;7.37;;
2618;SDS011;1319;52.346;13.096;2022-11-15T16:16:58;13.47;;;7.20;;
2618;SDS011;1319;52.346;13.096;2022-11-15T16:19:23;9.57;;;6.87;;
2618;SDS011;1319;52.346;13.096;2022-11-15T16:21:49;14.43;;;8.40;;
2618;SDS011;1319;52.346;13.096;2022-11-15T16:24:16;11.33;;;7.83;;
2618;SDS011;1319;52.346;13.096;2022-11-15T16:26:42;11.83;;;7.50;;
2618;SDS011;1319;52.346;13.096;2022-11-15T16:29:07;16.20;;;7.13;;
2618;SDS011;1319;52.346;13.096;2022-11-15T16:31:34;8.17;;;6.33;;
2618;SDS011;1319;52.346;13.096;2022-11-15T16:33:59;9.07;;;6.83;;
2618;SDS011;1319;52.346;13.096;2022-11-15T16:36:25;11.30;;;6.80;;
2618;SDS011;1319;52.346;13.096;2022-11-15T16:38:50;12.23;;;6.97;;
2618;SDS011;1319;52.346;13.096;2022-11-15T16:41:16;9.40;;;6.60;;